Weather History for KPYX - December, 2012

Change the Weather History Date:

Monday, December 10, 2012

  Actual Average Record
Temperature  
Mean Temperature 24 °F -  
Max Temperature 42 °F 48 °F 73 °F (1993)
Min Temperature 5 °F 21 °F -2 °F (1972)
Degree Days  
Heating Degree Days 42    
Moisture  
Dew Point 2 °F    
Average Humidity 42    
Maximum Humidity 72    
Minimum Humidity 13    
Precipitation  
Precipitation 0.00 in - - ()
Sea Level Pressure  
Sea Level Pressure 30.04 in    
Wind  
Wind Speed 12 mph (WSW)    
Max Wind Speed 23 mph    
Max Gust Speed 22 mph    
Visibility 10 miles    
Events      
Averages and records for this station are not official NWS values.
T = Trace of Precipitation, MM = Missing Value Source: NWS Daily Summary

Daily Weather History Graph

Daily Weather History Graph

Search for Another Location

Airport or City:

Trip Planner

Search our weather history database for the weather conditions in past years. The results will help you decide how hot, cold, wet, or windy it might be!

Date:

Astronomy

Dec. 10, 2012 Rise Set
Actual Time 7:44 AM CST 5:27 PM CST
Civil Twilight 7:15 AM CST 5:56 PM CST
Nautical Twilight 6:43 AM CST 6:28 PM CST
Astronomical Twilight 6:12 AM CST 7:00 PM CST
Moon 4:32 AM CST (12/10) 3:16 PM CST (12/10)
Length of Visible Light 10h 41m
Length of Day
9h 43m
Waning Crescent, 10% of the Moon is Illuminated
Dec 10
Waning Crescent
Dec 13
New
Dec 19
First Quarter
Dec 28
Full
Jan 4
Last Quarter

Hourly Weather History & Observations

Time (CST) Temp. Windchill Dew Point Humidity Pressure Visibility Wind Dir Wind Speed Gust Speed Precip Events Conditions
12:15 AM 21.2 °F 4.9 °F 3.2 °F 46% 30.19 in 10.0 mi North 23.0 mph - N/A   Clear
12:35 AM 21.2 °F 5.6 °F 3.2 °F 46% 30.20 in 10.0 mi NNW 20.7 mph - N/A   Clear
12:55 AM 19.4 °F 5.0 °F 3.2 °F 49% 30.19 in 10.0 mi NNW 16.1 mph - N/A   Clear
1:15 AM 17.6 °F 2.7 °F 1.4 °F 49% 30.19 in 10.0 mi NNW 16.1 mph - N/A   Clear
1:35 AM 17.6 °F 3.7 °F 1.4 °F 49% 30.19 in 10.0 mi NNW 13.8 mph - N/A   Clear
1:55 AM 15.8 °F 3.4 °F 1.4 °F 53% 30.18 in 10.0 mi NNW 10.4 mph - N/A   Clear
2:15 AM 14.0 °F 0.5 °F 1.4 °F 57% 30.17 in 10.0 mi NNW 11.5 mph - N/A   Clear
2:55 AM 14.0 °F 0.5 °F 1.4 °F 57% 30.16 in 10.0 mi NW 11.5 mph - N/A   Clear
3:15 AM 14.0 °F 1.2 °F 1.4 °F 57% 30.16 in 10.0 mi NNW 10.4 mph - N/A   Clear
3:35 AM 14.0 °F 2.0 °F 1.4 °F 57% 30.15 in 10.0 mi NW 9.2 mph - N/A   Clear
3:55 AM 12.2 °F -1.0 °F 1.4 °F 62% 30.15 in 10.0 mi NW 10.4 mph - N/A   Clear
4:15 AM 12.2 °F -0.2 °F -0.4 °F 57% 30.14 in 10.0 mi NW 9.2 mph - N/A   Clear
4:35 AM 10.4 °F -1.5 °F 1.4 °F 67% 30.14 in 10.0 mi NW 8.1 mph - N/A   Clear
4:55 AM 10.4 °F 0.8 °F -0.4 °F 62% 30.14 in 10.0 mi WNW 5.8 mph - N/A   Clear
5:15 AM 8.6 °F -1.3 °F -0.4 °F 67% 30.14 in 10.0 mi WNW 5.8 mph - N/A   Clear
5:35 AM 8.6 °F -3.7 °F -2.2 °F 62% 30.14 in 10.0 mi WNW 8.1 mph - N/A   Clear
6:15 AM 6.8 °F -4.8 °F -2.2 °F 67% 30.12 in 10.0 mi WNW 6.9 mph - N/A   Clear
6:35 AM 5.0 °F -9.1 °F -4.0 °F 66% 30.13 in 10.0 mi West 9.2 mph - N/A   Clear
6:55 AM 6.8 °F -4.8 °F -0.4 °F 72% 30.13 in 10.0 mi West 6.9 mph - N/A   Clear
7:15 AM 8.6 °F -2.6 °F -0.4 °F 67% 30.13 in 10.0 mi WSW 6.9 mph - N/A   Clear
7:35 AM 8.6 °F -4.7 °F -0.4 °F 67% 30.13 in 10.0 mi West 9.2 mph - N/A   Clear
7:55 AM 8.6 °F -3.7 °F -0.4 °F 67% 30.13 in 10.0 mi West 8.1 mph - N/A   Clear
8:15 AM 10.4 °F -0.4 °F 1.4 °F 67% 30.13 in 10.0 mi WSW 6.9 mph - N/A   Clear
8:35 AM 12.2 °F 1.7 °F 1.4 °F 62% 30.14 in 10.0 mi WSW 6.9 mph - N/A   Clear
8:55 AM 14.0 °F 2.9 °F 3.2 °F 62% 30.14 in 10.0 mi WSW 8.1 mph - N/A   Clear
9:15 AM 17.6 °F 6.4 °F 3.2 °F 53% 30.14 in 10.0 mi WSW 9.2 mph - N/A   Clear
9:35 AM 21.2 °F 10.9 °F 3.2 °F 46% 30.13 in 10.0 mi WSW 9.2 mph - N/A   Clear
9:55 AM 23.0 °F 12.4 °F 3.2 °F 43% 30.12 in 10.0 mi West 10.4 mph - N/A   Clear
10:15 AM 26.6 °F 16.8 °F 3.2 °F 37% 30.12 in 10.0 mi West 10.4 mph - N/A   Clear
10:35 AM 28.4 °F 18.5 °F 5.0 °F 37% 30.12 in 10.0 mi WSW 11.5 mph - N/A   Clear
10:55 AM 30.2 °F 20.8 °F 6.8 °F 37% 30.10 in 10.0 mi WSW 11.5 mph - N/A   Clear
11:15 AM 32.0 °F 22.5 °F 6.8 °F 35% 30.09 in 10.0 mi WSW 12.7 mph - N/A   Clear
11:35 AM 33.8 °F 24.3 °F 5.0 °F 30% 30.08 in 10.0 mi West 13.8 mph - N/A   Clear
11:55 AM 33.8 °F 24.8 °F 3.2 °F 28% 30.06 in 10.0 mi West 12.7 mph - N/A   Clear
12:15 PM 35.6 °F 26.6 °F 1.4 °F 24% 30.05 in 10.0 mi WSW 13.8 mph - N/A   Clear
12:35 PM 35.6 °F 25.9 °F 3.2 °F 26% 30.03 in 10.0 mi WSW 16.1 mph - N/A   Clear
12:55 PM 37.4 °F 28.9 °F 1.4 °F 22% 30.01 in 10.0 mi WSW 13.8 mph - N/A   Clear
1:15 PM 39.2 °F 30.8 °F -0.4 °F 19% 29.99 in 10.0 mi WSW 15.0 mph - N/A   Clear
1:35 PM 39.2 °F 31.2 °F -4.0 °F 16% 29.98 in 10.0 mi SW 13.8 mph 18.4 mph N/A   Clear
1:55 PM 41.0 °F 34.3 °F -5.8 °F 14% 29.97 in 10.0 mi SW 11.5 mph 21.9 mph N/A   Clear
2:15 PM 41.0 °F 33.5 °F -4.0 °F 15% 29.97 in 10.0 mi SW 13.8 mph 17.3 mph N/A   Clear
2:35 PM 41.0 °F 33.5 °F -4.0 °F 15% 29.96 in 10.0 mi SW 13.8 mph 18.4 mph N/A   Clear
2:55 PM 42.8 °F 36.2 °F -5.8 °F 13% 29.95 in 10.0 mi SW 12.7 mph 18.4 mph N/A   Clear
3:15 PM 42.8 °F 37.5 °F -4.0 °F 14% 29.94 in 10.0 mi SW 9.2 mph - N/A   Clear
3:35 PM 42.8 °F 36.6 °F -4.0 °F 14% 29.94 in 10.0 mi WSW 11.5 mph - N/A   Clear
3:55 PM 42.8 °F 36.2 °F -0.4 °F 16% 29.94 in 10.0 mi SW 12.7 mph 16.1 mph N/A   Clear
4:15 PM 42.8 °F 35.8 °F 3.2 °F 19% 29.93 in 10.0 mi WSW 13.8 mph 18.4 mph N/A   Clear
4:35 PM 41.0 °F 33.9 °F 3.2 °F 21% 29.93 in 10.0 mi SW 12.7 mph - N/A   Clear
4:55 PM 41.0 °F 33.9 °F 3.2 °F 21% 29.93 in 10.0 mi SSW 12.7 mph - N/A   Clear
5:15 PM 37.4 °F 31.4 °F 3.2 °F 24% 29.93 in 10.0 mi SW 8.1 mph - N/A   Clear
5:35 PM 35.6 °F 28.6 °F 3.2 °F 26% 29.93 in 10.0 mi SSW 9.2 mph - N/A   Clear
5:55 PM 32.0 °F 24.8 °F 3.2 °F 30% 29.92 in 10.0 mi SSW 8.1 mph - N/A   Clear
6:15 PM 30.2 °F 21.9 °F 3.2 °F 32% 29.93 in 10.0 mi SSW 9.2 mph - N/A   Clear
6:35 PM 28.4 °F 19.7 °F 3.2 °F 34% 29.93 in 10.0 mi SSW 9.2 mph - N/A   Clear
6:55 PM 26.6 °F 17.5 °F 3.2 °F 37% 29.93 in 10.0 mi SSW 9.2 mph - N/A   Clear
7:15 PM 24.8 °F 15.3 °F 3.2 °F 40% 29.93 in 10.0 mi SSW 9.2 mph - N/A   Clear
7:35 PM 24.8 °F 16.1 °F 3.2 °F 40% 29.93 in 10.0 mi South 8.1 mph - N/A   Clear
7:55 PM 23.0 °F 13.9 °F 1.4 °F 39% 29.93 in 10.0 mi South 8.1 mph - N/A   Clear
8:15 PM 23.0 °F 13.9 °F 3.2 °F 43% 29.93 in 10.0 mi South 8.1 mph - N/A   Clear
8:35 PM 23.0 °F 13.9 °F 3.2 °F 43% 29.94 in 10.0 mi South 8.1 mph - N/A   Clear
8:55 PM 21.2 °F 11.7 °F 1.4 °F 42% 29.94 in 10.0 mi South 8.1 mph - N/A   Clear
9:15 PM 21.2 °F 12.6 °F 1.4 °F 42% 29.94 in 10.0 mi South 6.9 mph - N/A   Clear
9:35 PM 23.0 °F 17.0 °F 3.2 °F 43% 29.94 in 10.0 mi SSW 4.6 mph - N/A   Clear
9:55 PM 23.0 °F 15.8 °F 3.2 °F 43% 29.96 in 10.0 mi SSW 5.8 mph - N/A   Clear
10:15 PM 21.2 °F 13.6 °F 3.2 °F 46% 29.96 in 10.0 mi South 5.8 mph - N/A   Clear
10:35 PM 19.4 °F 11.5 °F 1.4 °F 46% 29.96 in 10.0 mi SSW 5.8 mph - N/A   Clear
10:55 PM 23.0 °F 15.8 °F 5.0 °F 46% 29.97 in 10.0 mi South 5.8 mph - N/A   Clear
11:15 PM 21.2 °F 12.6 °F 5.0 °F 50% 29.97 in 10.0 mi SSW 6.9 mph - N/A   Clear
11:35 PM 21.2 °F 12.6 °F 5.0 °F 50% 29.97 in 10.0 mi SSW 6.9 mph - N/A   Clear
11:55 PM 19.4 °F 11.5 °F 3.2 °F 49% 29.98 in 10.0 mi WSW 5.8 mph - N/A   Clear